Time;durP1;ratioP1;P1;durP2;ratioP2;P2;SDS_P1;SDS_P2;PMS_P1;PMS_P2;Temp;Humidity;BMP_temperature;BMP_pressure;BME280_temperature;BME280_humidity;BME280_pressure;Samples;Min_cycle;Max_cycle;Signal;HPM_P1;HPM_P2
2021/11/20 00:00:25;;;;;;;6.40;2.40;;;;;;;13.57;100.00;101751.66;4990061;28;20027;-68
2021/11/20 00:02:52;;;;;;;1.95;1.20;;;;;;;13.56;100.00;101758.22;4967205;28;20390;-67
2021/11/20 00:05:30;;;;;;;3.35;1.98;;;;;;;13.65;100.00;101749.91;4991918;28;20056;-66
2021/11/20 00:07:57;;;;;;;2.97;1.38;;;;;;;13.57;100.00;101748.94;4984446;28;20130;-67
2021/11/20 00:10:28;;;;;;;2.00;1.42;;;;;;;13.50;100.00;101754.97;4987509;28;20038;-67
2021/11/20 00:12:55;;;;;;;6.18;1.50;;;;;;;13.40;100.00;101751.97;4990773;28;20444;-67
2021/11/20 00:15:26;;;;;;;5.32;1.60;;;;;;;13.45;100.00;101746.34;4987981;28;20503;-67
2021/11/20 00:17:51;;;;;;;4.15;1.52;;;;;;;13.45;100.00;101738.22;4993661;28;20034;-66
2021/11/20 00:20:19;;;;;;;2.78;1.40;;;;;;;13.47;100.00;101738.66;4988310;28;20067;-66
2021/11/20 00:22:47;;;;;;;3.45;1.40;;;;;;;13.49;100.00;101731.75;4989769;28;20517;-66
2021/11/20 00:25:31;;;;;;;2.97;1.58;;;;;;;13.47;100.00;101720.47;4988363;28;20046;-67
2021/11/20 00:27:59;;;;;;;2.65;1.30;;;;;;;13.46;100.00;101735.16;4996120;28;20026;-66
2021/11/20 00:30:41;;;;;;;1.88;1.23;;;;;;;13.46;100.00;101737.06;5006253;28;20089;-67
2021/11/20 00:33:09;;;;;;;3.72;1.52;;;;;;;13.39;100.00;101743.06;4991991;28;20042;-65
2021/11/20 00:35:39;;;;;;;2.28;1.02;;;;;;;13.35;100.00;101736.00;5002163;28;20127;-66
2021/11/20 00:38:10;;;;;;;2.83;0.90;;;;;;;13.35;100.00;101731.38;5007516;28;20042;-67
2021/11/20 00:40:43;;;;;;;1.75;1.23;;;;;;;13.32;100.00;101731.28;4992974;28;20038;-66
2021/11/20 00:43:10;;;;;;;4.63;0.93;;;;;;;13.37;100.00;101731.03;5001247;28;20117;-66
2021/11/20 00:45:36;;;;;;;2.00;1.10;;;;;;;13.41;100.00;101740.03;5001749;28;20022;-65
2021/11/20 00:48:06;;;;;;;4.18;1.45;;;;;;;13.38;100.00;101727.19;5010505;28;20036;-66
2021/11/20 00:50:34;;;;;;;1.42;1.00;;;;;;;13.36;100.00;101721.34;5006482;28;20038;-66
2021/11/20 00:53:03;;;;;;;4.03;0.82;;;;;;;13.37;100.00;101720.22;4989974;28;20382;-66
2021/11/20 00:55:29;;;;;;;2.80;1.50;;;;;;;13.31;100.00;101716.19;5006787;28;20034;-66
2021/11/20 00:57:57;;;;;;;2.22;1.40;;;;;;;13.38;100.00;101724.47;4996377;28;20521;-67
2021/11/20 01:00:27;;;;;;;1.60;1.00;;;;;;;13.30;100.00;101720.00;4997979;28;20031;-66
2021/11/20 01:02:52;;;;;;;1.25;1.00;;;;;;;13.26;100.00;101719.91;4957967;28;20497;-66
2021/11/20 01:05:21;;;;;;;2.95;1.13;;;;;;;13.26;100.00;101724.53;4989588;28;20080;-66
2021/11/20 01:07:48;;;;;;;1.52;0.90;;;;;;;13.29;100.00;101723.84;4996095;28;20080;-66
2021/11/20 01:10:18;;;;;;;4.68;1.13;;;;;;;13.28;100.00;101738.50;5009178;28;20125;-67
2021/11/20 01:12:44;;;;;;;6.00;1.02;;;;;;;13.25;100.00;101726.47;5009471;28;20041;-67
2021/11/20 01:15:14;;;;;;;1.50;1.17;;;;;;;13.33;100.00;101732.84;5004324;28;20584;-66
2021/11/20 01:17:40;;;;;;;2.90;1.05;;;;;;;13.30;100.00;101738.94;5009649;28;20049;-66
2021/11/20 01:20:09;;;;;;;2.15;1.08;;;;;;;13.32;100.00;101723.16;5008528;28;20065;-66
2021/11/20 01:22:53;;;;;;;2.10;1.33;;;;;;;13.19;100.00;101743.28;5001983;28;20042;-66
2021/11/20 01:25:27;;;;;;;3.05;1.40;;;;;;;13.26;100.00;101738.84;4991651;28;20144;-66
2021/11/20 01:28:07;;;;;;;3.83;1.25;;;;;;;13.27;100.00;101734.25;4991556;28;20512;-66
2021/11/20 01:30:45;;;;;;;4.63;2.25;;;;;;;13.29;100.00;101730.06;4988558;28;20108;-66
2021/11/20 01:33:14;;;;;;;3.15;1.55;;;;;;;13.31;100.00;101713.47;4996450;28;20038;-66
2021/11/20 01:35:40;;;;;;;2.88;1.50;;;;;;;13.25;100.00;101717.56;5005811;28;20038;-66
2021/11/20 01:38:12;;;;;;;5.22;1.55;;;;;;;13.18;100.00;101711.97;5006628;28;20404;-66
2021/11/20 01:40:42;;;;;;;3.80;1.75;;;;;;;13.16;100.00;101720.41;5003745;28;20401;-66
2021/11/20 01:43:14;;;;;;;3.85;1.58;;;;;;;13.15;100.00;101726.97;4985919;28;20038;-66
2021/11/20 01:46:03;;;;;;;4.28;1.70;;;;;;;13.25;100.00;101712.94;4991945;28;20555;-66
2021/11/20 01:48:40;;;;;;;2.58;1.27;;;;;;;13.22;100.00;101718.28;4994580;28;20041;-66
2021/11/20 01:51:16;;;;;;;3.63;1.40;;;;;;;13.26;100.00;101717.22;4983830;28;20345;-66
2021/11/20 01:53:54;;;;;;;1.98;1.10;;;;;;;13.23;100.00;101722.53;4999342;28;20031;-66
2021/11/20 01:56:52;;;;;;;1.00;0.90;;;;;;;13.23;100.00;101717.13;4988766;28;20034;-66
2021/11/20 01:59:33;;;;;;;3.63;1.60;;;;;;;13.16;100.00;101704.19;4970246;28;20060;-66
2021/11/20 02:02:21;;;;;;;3.03;1.52;;;;;;;13.23;100.00;101709.81;4993470;28;20084;-66
2021/11/20 02:05:07;;;;;;;1.52;1.42;;;;;;;13.27;100.00;101720.72;4988884;28;20097;-66
2021/11/20 02:07:52;;;;;;;2.60;1.17;;;;;;;13.23;100.00;101704.41;4986189;28;20120;-66
2021/11/20 02:10:28;;;;;;;3.35;1.50;;;;;;;13.23;100.00;101712.50;4990217;28;20034;-66
2021/11/20 02:12:59;;;;;;;3.28;1.20;;;;;;;13.22;100.00;101708.22;4989209;28;20405;-66
2021/11/20 02:15:42;;;;;;;4.80;1.52;;;;;;;13.12;100.00;101714.16;4961170;28;20117;-66
2021/11/20 02:18:10;;;;;;;2.65;1.83;;;;;;;13.17;100.00;101715.81;4975726;28;20068;-66
2021/11/20 02:20:49;;;;;;;5.05;1.80;;;;;;;13.17;100.00;101702.28;5002694;28;20484;-66
2021/11/20 02:23:33;;;;;;;2.08;1.45;;;;;;;13.18;100.00;101710.03;5010452;28;20053;-66
2021/11/20 02:26:02;;;;;;;4.30;1.63;;;;;;;13.21;100.00;101701.25;4998464;28;20505;-66
2021/11/20 02:28:50;;;;;;;2.40;1.40;;;;;;;13.20;100.00;101704.31;5004791;28;20440;-67
2021/11/20 02:31:48;;;;;;;4.65;1.58;;;;;;;13.18;100.00;101704.63;4987665;28;20425;-66
2021/11/20 02:34:16;;;;;;;2.38;1.60;;;;;;;13.19;100.00;101698.09;5004916;28;20393;-66
2021/11/20 02:36:44;;;;;;;8.45;1.77;;;;;;;13.22;100.00;101693.94;4993653;28;20060;-66
2021/11/20 02:39:23;;;;;;;2.97;1.70;;;;;;;13.13;100.00;101685.97;5005251;28;20128;-66
2021/11/20 02:41:53;;;;;;;2.35;1.23;;;;;;;13.24;100.00;101694.38;5004191;28;20032;-66
2021/11/20 02:44:25;;;;;;;4.00;1.83;;;;;;;13.24;100.00;101695.13;4989223;28;20034;-66
2021/11/20 02:46:59;;;;;;;3.30;1.60;;;;;;;13.30;100.00;101693.75;4999507;28;20033;-66
2021/11/20 02:49:27;;;;;;;5.28;1.80;;;;;;;13.26;100.00;101689.38;5010211;28;20041;-66
2021/11/20 02:52:16;;;;;;;4.00;2.13;;;;;;;13.19;100.00;101689.19;5007207;28;20873;-67
2021/11/20 02:54:43;;;;;;;6.32;2.72;;;;;;;13.09;100.00;101695.09;4990178;28;20034;-66
2021/11/20 02:57:22;;;;;;;2.47;1.75;;;;;;;13.07;100.00;101687.34;5001766;28;20034;-66
2021/11/20 02:59:49;;;;;;;2.83;1.70;;;;;;;13.08;100.00;101693.53;4987097;28;20539;-66
2021/11/20 03:02:20;;;;;;;4.97;1.50;;;;;;;13.14;100.00;101684.81;4995951;28;20038;-66
2021/11/20 03:04:47;;;;;;;5.53;2.60;;;;;;;13.18;100.00;101690.34;4992829;28;20512;-65
2021/11/20 03:07:13;;;;;;;4.72;2.75;;;;;;;13.09;100.00;101682.38;4992880;28;20026;-67
2021/11/20 03:09:39;;;;;;;5.57;2.25;;;;;;;13.16;100.00;101684.50;4995799;28;20034;-67
2021/11/20 03:12:13;;;;;;;2.65;1.45;;;;;;;13.07;100.00;101681.94;5001638;28;20057;-67
2021/11/20 03:14:42;;;;;;;3.75;1.88;;;;;;;13.10;100.00;101675.84;5012162;28;20030;-67
2021/11/20 03:17:10;;;;;;;2.55;1.35;;;;;;;13.15;100.00;101674.78;5012268;28;20037;-67
2021/11/20 03:19:46;;;;;;;3.50;1.83;;;;;;;13.16;100.00;101669.03;5003199;28;20093;-67
2021/11/20 03:22:17;;;;;;;8.95;2.03;;;;;;;13.13;100.00;101668.94;5011390;28;20038;-67
2021/11/20 03:24:46;;;;;;;;;;;;;;;13.11;100.00;101666.59;4996175;28;20476;-67
2021/11/20 03:27:12;;;;;;;5.40;1.30;;;;;;;13.10;100.00;101666.94;5000752;28;20051;-66
2021/11/20 03:29:38;;;;;;;3.22;1.65;;;;;;;13.03;100.00;101664.81;4997927;28;20042;-67
2021/11/20 03:32:05;;;;;;;3.58;2.15;;;;;;;13.14;100.00;101675.94;4998788;28;20030;-66
2021/11/20 03:34:33;;;;;;;2.60;1.52;;;;;;;13.09;100.00;101655.31;5008607;28;20069;-67
2021/11/20 03:36:59;;;;;;;6.65;2.25;;;;;;;13.10;100.00;101659.63;4993591;28;20496;-67
2021/11/20 03:39:32;;;;;;;2.95;1.67;;;;;;;13.15;100.00;101661.25;4986887;28;20040;-67
2021/11/20 03:41:59;;;;;;;3.53;1.83;;;;;;;13.29;100.00;101656.22;5009391;28;20056;-67
2021/11/20 03:44:25;;;;;;;5.15;1.77;;;;;;;13.24;100.00;101654.56;5011458;28;20467;-67
2021/11/20 03:46:54;;;;;;;4.35;1.45;;;;;;;13.18;100.00;101655.94;5011408;28;20034;-67
2021/11/20 03:49:22;;;;;;;2.83;1.63;;;;;;;13.17;100.00;101659.00;4998747;28;20664;-67
2021/11/20 03:51:48;;;;;;;7.53;1.23;;;;;;;13.26;100.00;101654.19;4988658;28;20109;-67
2021/11/20 03:54:14;;;;;;;4.35;1.80;;;;;;;13.21;100.00;101657.16;5011340;28;20026;-67
2021/11/20 03:56:40;;;;;;;3.97;1.70;;;;;;;13.06;100.00;101664.16;5003252;28;20038;-67
2021/11/20 03:59:08;;;;;;;3.38;1.58;;;;;;;13.07;100.00;101663.00;4999697;28;20551;-67
2021/11/20 04:01:34;;;;;;;5.20;2.05;;;;;;;13.22;100.00;101666.88;5006243;28;20125;-67
2021/11/20 04:04:02;;;;;;;11.45;2.30;;;;;;;13.13;100.00;101669.72;5005791;28;20117;-67
2021/11/20 04:06:28;;;;;;;4.00;1.73;;;;;;;13.16;100.00;101674.44;5010695;28;20084;-67
2021/11/20 04:09:03;;;;;;;5.40;1.65;;;;;;;13.22;100.00;101659.53;5011449;28;20037;-66
2021/11/20 04:11:34;;;;;;;7.13;2.10;;;;;;;13.27;100.00;101662.00;4989564;28;20077;-66
2021/11/20 04:14:02;;;;;;;4.05;1.70;;;;;;;13.14;100.00;101652.34;4985906;28;20037;-67
2021/11/20 04:16:30;;;;;;;6.60;2.13;;;;;;;13.21;100.00;101649.06;5010678;28;20505;-67
2021/11/20 04:18:57;;;;;;;4.95;1.58;;;;;;;13.22;100.00;101645.22;5002259;28;20038;-67
2021/11/20 04:21:24;;;;;;;6.50;2.05;;;;;;;13.26;100.00;101654.19;5001162;28;20030;-67
2021/11/20 04:23:52;;;;;;;6.05;2.30;;;;;;;13.30;100.00;101644.25;5010735;28;20034;-66
2021/11/20 04:26:26;;;;;;;3.42;1.83;;;;;;;13.22;100.00;101642.53;5010867;28;20041;-67
2021/11/20 04:28:53;;;;;;;3.92;1.98;;;;;;;13.27;100.00;101643.06;4984100;28;20038;-67
2021/11/20 04:31:26;;;;;;;5.45;2.47;;;;;;;13.26;100.00;101637.97;4997789;28;20018;-67
2021/11/20 04:33:54;;;;;;;5.03;2.10;;;;;;;13.21;100.00;101628.22;5007921;28;20041;-66
2021/11/20 04:36:21;;;;;;;4.75;2.03;;;;;;;13.21;100.00;101633.63;4998939;28;20038;-67
2021/11/20 04:38:47;;;;;;;5.40;2.03;;;;;;;13.27;100.00;101634.94;4974442;28;20386;-67
2021/11/20 04:41:14;;;;;;;6.80;2.45;;;;;;;13.19;100.00;101621.56;4989198;28;20111;-66
2021/11/20 04:43:42;;;;;;;5.82;2.28;;;;;;;13.22;100.00;101632.47;4988242;28;20073;-67
2021/11/20 04:46:10;;;;;;;4.72;2.05;;;;;;;13.22;100.00;101620.88;5002271;28;20400;-67
2021/11/20 04:48:36;;;;;;;5.65;2.30;;;;;;;13.25;100.00;101617.47;5010385;28;20033;-67
2021/11/20 04:51:03;;;;;;;3.95;2.10;;;;;;;13.18;100.00;101623.47;5009054;28;20029;-67
2021/11/20 04:53:33;;;;;;;5.80;2.90;;;;;;;13.24;100.00;101627.50;5003928;28;20027;-67
2021/11/20 04:55:59;;;;;;;7.82;2.30;;;;;;;13.10;100.00;101626.38;4993542;28;20189;-67
2021/11/20 04:58:29;;;;;;;7.47;2.50;;;;;;;13.14;100.00;101621.84;4990341;28;20045;-67
2021/11/20 05:00:59;;;;;;;6.53;2.17;;;;;;;13.13;100.00;101620.25;4988376;28;20477;-67
2021/11/20 05:03:32;;;;;;;4.75;2.47;;;;;;;13.18;100.00;101614.59;4991623;28;20204;-67
2021/11/20 05:06:00;;;;;;;5.72;2.00;;;;;;;13.22;100.00;101612.78;4989020;28;20041;-67
2021/11/20 05:08:29;;;;;;;4.80;2.00;;;;;;;13.22;100.00;101616.25;4994793;28;20040;-67
2021/11/20 05:11:03;;;;;;;4.68;2.20;;;;;;;13.30;100.00;101614.50;4991952;28;20030;-67
2021/11/20 05:13:40;;;;;;;4.00;2.13;;;;;;;13.27;100.00;101616.00;4989970;28;20034;-67
2021/11/20 05:16:06;;;;;;;5.90;1.98;;;;;;;13.16;100.00;101619.56;4987159;28;20041;-67
2021/11/20 05:18:35;;;;;;;6.97;2.25;;;;;;;13.13;100.00;101618.34;5001371;28;20121;-67
2021/11/20 05:21:10;;;;;;;3.00;1.80;;;;;;;13.13;100.00;101617.53;5008789;28;20034;-67
2021/11/20 05:23:37;;;;;;;5.10;2.20;;;;;;;13.18;100.00;101609.97;5009752;28;20180;-67
2021/11/20 05:26:05;;;;;;;6.38;2.20;;;;;;;13.13;100.00;101612.94;4981145;28;20034;-67
2021/11/20 05:28:31;;;;;;;7.75;2.15;;;;;;;13.20;100.00;101612.34;4996538;28;20044;-67
2021/11/20 05:31:00;;;;;;;8.48;2.30;;;;;;;13.24;100.00;101605.09;4988896;28;20023;-67
2021/11/20 05:33:41;;;;;;;7.97;2.47;;;;;;;13.19;100.00;101608.84;4991963;28;20061;-67
2021/11/20 05:36:13;;;;;;;7.78;2.90;;;;;;;13.28;100.00;101601.31;5006393;28;20027;-67
2021/11/20 05:38:39;;;;;;;9.88;2.78;;;;;;;13.27;100.00;101596.28;5006212;28;20026;-67
2021/11/20 05:41:06;;;;;;;6.50;2.28;;;;;;;13.13;100.00;101593.22;4999933;28;20046;-67
2021/11/20 05:43:43;;;;;;;5.60;2.53;;;;;;;13.19;100.00;101591.81;5001510;28;20416;-67
2021/11/20 05:46:17;;;;;;;4.82;2.25;;;;;;;13.18;100.00;101584.84;5009466;28;20034;-67
2021/11/20 05:48:43;;;;;;;8.85;3.53;;;;;;;13.22;100.00;101585.72;5009452;28;20037;-67
2021/11/20 05:51:09;;;;;;;6.22;2.58;;;;;;;13.22;100.00;101580.31;4996212;28;20682;-67
2021/11/20 05:53:35;;;;;;;8.32;2.33;;;;;;;13.19;100.00;101581.78;5008473;28;20380;-67
2021/11/20 05:56:02;;;;;;;6.25;2.72;;;;;;;13.18;100.00;101576.72;4996867;28;20121;-67
2021/11/20 05:58:38;;;;;;;4.97;2.72;;;;;;;13.23;100.00;101571.84;4995109;28;20037;-67
2021/11/20 06:01:08;;;;;;;9.43;3.10;;;;;;;13.18;100.00;101571.31;4986466;28;20034;-67
2021/11/20 06:03:35;;;;;;;10.23;2.28;;;;;;;13.09;100.00;101576.09;4998061;28;20057;-67
2021/11/20 06:06:01;;;;;;;6.15;2.65;;;;;;;13.08;100.00;101579.97;5005281;28;20072;-67
2021/11/20 06:08:27;;;;;;;7.30;2.38;;;;;;;13.14;100.00;101575.84;4996586;28;20050;-67
2021/11/20 06:10:56;;;;;;;5.15;2.38;;;;;;;13.18;100.00;101574.78;4992335;28;20397;-67
2021/11/20 06:13:23;;;;;;;12.25;3.15;;;;;;;13.10;100.00;101572.28;4989409;28;20038;-67
2021/11/20 06:15:57;;;;;;;8.32;2.53;;;;;;;13.16;100.00;101576.28;5002337;28;20037;-67
2021/11/20 06:18:23;;;;;;;8.80;3.15;;;;;;;13.11;100.00;101576.53;5005893;28;20038;-67
2021/11/20 06:20:50;;;;;;;7.07;2.95;;;;;;;13.09;100.00;101573.41;5005082;28;20036;-67
2021/11/20 06:23:17;;;;;;;6.85;3.25;;;;;;;13.18;100.00;101576.72;5002956;28;20034;-67
2021/11/20 06:25:43;;;;;;;4.55;2.55;;;;;;;13.12;100.00;101580.84;4984456;28;20054;-67
2021/11/20 06:28:08;;;;;;;6.57;3.08;;;;;;;13.17;100.00;101583.25;4990839;28;20066;-67
2021/11/20 06:30:35;;;;;;;7.20;2.35;;;;;;;13.14;100.00;101586.69;5003815;28;20565;-67
2021/11/20 06:33:01;;;;;;;11.57;3.17;;;;;;;13.23;100.00;101593.47;5000587;28;20109;-67
2021/11/20 06:35:58;;;;;;;5.20;2.35;;;;;;;13.19;100.00;101589.91;4979969;28;20121;-67
2021/11/20 06:38:31;;;;;;;8.90;3.05;;;;;;;13.17;100.00;101594.09;4993257;28;20042;-67
2021/11/20 06:41:00;;;;;;;6.60;2.55;;;;;;;13.09;100.00;101598.53;4988900;28;20042;-67
2021/11/20 06:43:28;;;;;;;6.78;2.97;;;;;;;13.02;100.00;101594.84;4999792;28;20061;-67
2021/11/20 06:45:58;;;;;;;5.30;2.95;;;;;;;13.09;100.00;101603.16;4993242;28;20048;-67
2021/11/20 06:48:26;;;;;;;4.00;2.30;;;;;;;13.05;100.00;101599.56;4992832;28;20050;-67
2021/11/20 06:51:20;;;;;;;7.20;2.05;;;;;;;13.13;100.00;101595.91;4975873;28;20501;-67
2021/11/20 06:54:06;;;;;;;7.75;2.00;;;;;;;13.09;100.00;101608.56;4994117;28;20038;-67
2021/11/20 06:57:05;;;;;;;3.75;2.25;;;;;;;12.96;100.00;101607.81;4988192;28;20424;-67
2021/11/20 07:02:36;;;;;;;4.40;1.90;;;;;;;12.99;100.00;101598.25;5001592;28;20045;-67
2021/11/20 07:05:04;;;;;;;;;;;;;;;12.97;100.00;101589.69;5005209;28;20585;-67
2021/11/20 07:07:33;;;;;;;10.18;2.88;;;;;;;13.03;100.00;101588.28;5005546;28;20364;-67
2021/11/20 07:09:59;;;;;;;4.65;2.42;;;;;;;13.08;100.00;101588.84;5005935;28;20046;-67
2021/11/20 07:12:25;;;;;;;4.82;2.13;;;;;;;13.01;100.00;101590.53;5002981;28;20033;-67
2021/11/20 07:14:50;;;;;;;6.60;2.83;;;;;;;12.96;100.00;101583.50;5012341;28;20021;-67
2021/11/20 07:17:16;;;;;;;5.35;2.63;;;;;;;13.05;100.00;101578.72;5013246;28;20040;-67
2021/11/20 07:20:04;;;;;;;7.40;2.60;;;;;;;13.03;100.00;101578.28;5001286;28;20118;-67
2021/11/20 07:22:49;;;;;;;5.30;2.35;;;;;;;13.05;100.00;101564.41;4997571;28;20527;-67
2021/11/20 07:25:17;;;;;;;5.22;2.38;;;;;;;13.00;100.00;101575.47;4992922;28;20077;-67
2021/11/20 07:27:43;;;;;;;5.50;2.42;;;;;;;13.03;100.00;101582.88;4995750;28;20381;-67
2021/11/20 07:30:11;;;;;;;7.93;3.03;;;;;;;13.04;100.00;101573.66;5002198;28;20029;-67
2021/11/20 07:32:55;;;;;;;4.72;2.42;;;;;;;13.15;100.00;101572.00;5005235;28;20044;-67
2021/11/20 07:35:27;;;;;;;7.95;3.08;;;;;;;13.19;100.00;101570.19;4991732;28;20559;-67
2021/11/20 07:37:54;;;;;;;5.90;2.70;;;;;;;13.04;100.00;101560.94;5002724;28;20035;-67
2021/11/20 07:40:22;;;;;;;7.68;2.58;;;;;;;13.08;100.00;101569.94;4971845;28;20057;-67
2021/11/20 07:42:48;;;;;;;9.88;2.20;;;;;;;13.02;100.00;101559.69;4970769;28;20034;-67
2021/11/20 07:45:33;;;;;;;8.30;2.67;;;;;;;12.92;100.00;101560.97;4978879;28;20061;-67
2021/11/20 07:48:09;;;;;;;4.57;2.10;;;;;;;13.01;100.00;101558.88;5000545;28;20065;-67
2021/11/20 07:50:35;;;;;;;6.72;3.03;;;;;;;13.05;100.00;101559.00;5007025;28;20030;-67
2021/11/20 07:53:02;;;;;;;3.78;2.03;;;;;;;13.04;100.00;101552.03;5006749;28;20082;-67
2021/11/20 07:55:28;;;;;;;5.75;2.25;;;;;;;13.12;100.00;101551.09;4997285;28;20022;-67
2021/11/20 07:57:57;;;;;;;5.55;2.72;;;;;;;13.24;100.00;101561.81;5003091;28;20140;-67
2021/11/20 08:00:24;;;;;;;6.85;2.78;;;;;;;13.05;100.00;101542.78;4974797;28;20062;-67
2021/11/20 08:03:02;;;;;;;8.75;3.67;;;;;;;13.03;100.00;101542.31;4974444;28;20519;-67
2021/11/20 08:05:49;;;;;;;6.95;2.78;;;;;;;12.99;100.00;101546.88;4990415;28;20058;-67
2021/11/20 08:08:36;;;;;;;8.48;3.63;;;;;;;13.09;100.00;101547.16;5005776;28;20049;-67
2021/11/20 08:11:10;;;;;;;5.28;2.80;;;;;;;12.99;100.00;101534.13;5006153;28;20169;-67
2021/11/20 08:13:37;;;;;;;9.13;2.72;;;;;;;13.06;100.00;101539.75;4996988;28;20034;-67
2021/11/20 08:16:22;;;;;;;9.38;2.50;;;;;;;13.06;100.00;101549.78;4992769;28;20105;-67
2021/11/20 08:19:17;;;;;;;10.43;3.22;;;;;;;13.23;100.00;101547.50;4981759;28;20104;-67
2021/11/20 08:21:57;;;;;;;6.63;2.47;;;;;;;13.17;100.00;101548.09;4999011;28;20382;-67
2021/11/20 08:24:28;;;;;;;4.57;2.75;;;;;;;12.99;100.00;101533.34;4992775;28;20553;-67
2021/11/20 08:26:56;;;;;;;5.60;2.53;;;;;;;13.09;100.00;101530.91;5007719;28;20132;-67
2021/11/20 08:29:23;;;;;;;10.07;3.25;;;;;;;13.09;100.00;101522.00;4999161;28;20117;-67
2021/11/20 08:31:51;;;;;;;7.68;3.17;;;;;;;13.15;100.00;101536.84;4975816;28;20030;-67
2021/11/20 08:34:32;;;;;;;9.70;3.15;;;;;;;13.15;100.00;101523.31;4987664;28;20037;-67
2021/11/20 08:37:18;;;;;;;7.85;2.22;;;;;;;13.14;100.00;101525.22;4987164;28;20112;-67
2021/11/20 08:39:58;;;;;;;8.05;2.95;;;;;;;13.14;100.00;101517.13;4982747;28;20508;-67
2021/11/20 08:42:25;;;;;;;8.05;2.47;;;;;;;13.11;100.00;101517.84;4986675;28;20035;-67
2021/11/20 08:44:51;;;;;;;7.68;2.50;;;;;;;13.16;100.00;101514.09;5001969;28;20056;-67
2021/11/20 08:47:21;;;;;;;5.15;2.10;;;;;;;13.19;100.00;101506.06;4994289;28;20081;-67
2021/11/20 08:49:48;;;;;;;4.75;2.33;;;;;;;13.17;100.00;101502.13;4988663;28;20104;-68
2021/11/20 08:52:15;;;;;;;5.00;2.15;;;;;;;13.16;100.00;101505.97;4984977;28;20057;-67
2021/11/20 08:54:44;;;;;;;4.72;1.77;;;;;;;13.23;100.00;101508.84;4980104;28;20038;-67
2021/11/20 08:57:10;;;;;;;5.03;2.60;;;;;;;13.25;100.00;101507.34;4985314;28;20030;-67
2021/11/20 08:59:37;;;;;;;5.18;2.60;;;;;;;13.26;100.00;101505.41;4967459;28;20035;-67
2021/11/20 09:02:18;;;;;;;10.38;3.83;;;;;;;13.31;100.00;101507.88;4986543;28;20049;-67
2021/11/20 09:05:04;;;;;;;5.47;2.20;;;;;;;13.20;100.00;101513.03;4964400;28;20097;-67
2021/11/20 09:07:39;;;;;;;5.40;2.35;;;;;;;13.25;100.00;101504.66;4982847;28;20042;-67
2021/11/20 09:10:24;;;;;;;5.57;2.35;;;;;;;13.22;100.00;101504.56;4988634;28;20576;-67
2021/11/20 09:12:52;;;;;;;4.78;2.60;;;;;;;13.26;100.00;101489.97;4989880;28;20493;-67
2021/11/20 09:15:33;;;;;;;5.35;2.22;;;;;;;13.34;100.00;101497.13;4975770;28;20053;-67
2021/11/20 09:18:10;;;;;;;6.85;2.75;;;;;;;13.35;100.00;101504.13;4978300;28;20034;-67
2021/11/20 09:20:56;;;;;;;5.70;2.50;;;;;;;13.21;100.00;101500.28;4974361;28;20034;-67
2021/11/20 09:23:52;;;;;;;5.88;2.63;;;;;;;13.28;100.00;101503.16;4931149;28;20055;-67
2021/11/20 09:26:44;;;;;;;7.15;2.28;;;;;;;13.28;100.00;101492.31;4952555;28;20556;-67
2021/11/20 09:29:13;;;;;;;4.97;2.45;;;;;;;13.32;100.00;101488.56;4921727;29;20106;-67
2021/11/20 09:31:42;;;;;;;2.33;1.48;;;;;;;13.29;100.00;101488.50;4942299;28;20082;-67
2021/11/20 09:34:09;;;;;;;5.63;2.70;;;;;;;13.31;100.00;101489.72;4946926;28;20097;-67
2021/11/20 09:36:35;;;;;;;5.43;1.92;;;;;;;13.25;100.00;101488.44;4930745;29;20039;-67
2021/11/20 09:39:37;;;;;;;7.10;2.63;;;;;;;13.38;100.00;101483.66;4936847;28;20133;-67
2021/11/20 09:42:11;;;;;;;4.88;2.13;;;;;;;13.40;100.00;101501.13;4943713;29;20178;-67
2021/11/20 09:44:48;;;;;;;4.63;2.42;;;;;;;13.42;100.00;101489.94;4930195;29;20039;-67
2021/11/20 09:47:23;;;;;;;4.32;1.98;;;;;;;13.50;100.00;101494.38;4944659;29;20089;-67
2021/11/20 09:49:53;;;;;;;4.15;2.22;;;;;;;13.44;100.00;101483.06;4929208;29;20485;-67
2021/11/20 09:52:20;;;;;;;;;;;;;;;13.45;100.00;101483.84;4943980;29;20775;-67
2021/11/20 09:54:48;;;;;;;6.55;2.10;;;;;;;13.53;100.00;101477.44;4936971;28;19957;-67
2021/11/20 09:57:14;;;;;;;3.83;2.33;;;;;;;13.48;100.00;101485.84;4934858;28;20031;-67
2021/11/20 10:00:04;;;;;;;4.07;1.98;;;;;;;13.48;100.00;101473.09;4960010;28;20049;-67
2021/11/20 10:02:53;;;;;;;3.75;1.92;;;;;;;13.56;100.00;101466.69;4986106;28;20052;-67
2021/11/20 10:05:32;;;;;;;4.20;2.55;;;;;;;13.57;100.00;101468.25;4989735;28;20374;-67
2021/11/20 10:08:04;;;;;;;3.33;2.25;;;;;;;13.62;100.00;101456.38;4986780;28;20030;-67
2021/11/20 10:10:47;;;;;;;4.28;2.58;;;;;;;13.65;100.00;101457.56;4988950;28;20035;-67
2021/11/20 10:13:18;;;;;;;5.57;2.05;;;;;;;13.70;100.00;101462.72;4981932;28;20038;-67
2021/11/20 10:16:01;;;;;;;4.03;2.38;;;;;;;13.64;100.00;101456.81;4983179;28;20062;-67
2021/11/20 10:18:49;;;;;;;3.53;1.75;;;;;;;13.67;100.00;101453.38;4992931;28;20502;-67
2021/11/20 10:21:28;;;;;;;3.22;2.00;;;;;;;13.60;100.00;101445.13;4993237;28;20037;-67
2021/11/20 10:23:59;;;;;;;5.53;2.20;;;;;;;13.70;100.00;101444.56;4992835;28;20042;-67
2021/11/20 10:26:52;;;;;;;4.32;1.98;;;;;;;13.73;100.00;101441.13;4991598;28;20541;-68
2021/11/20 10:29:43;;;;;;;3.35;1.85;;;;;;;13.78;100.00;101445.47;4995764;28;20515;-67
2021/11/20 10:32:12;;;;;;;3.65;1.88;;;;;;;13.77;100.00;101444.69;4987069;28;20453;-67
2021/11/20 10:34:58;;;;;;;5.97;1.90;;;;;;;13.75;99.98;101435.34;4991285;28;20038;-67
2021/11/20 10:37:33;;;;;;;3.45;2.10;;;;;;;13.73;99.23;101422.19;4991850;28;20104;-67
2021/11/20 10:40:04;;;;;;;4.95;1.90;;;;;;;13.75;99.00;101425.31;4990587;28;20046;-67
2021/11/20 10:42:30;;;;;;;4.72;1.77;;;;;;;13.71;99.09;101424.47;4996554;28;20444;-67
2021/11/20 10:45:15;;;;;;;8.38;2.20;;;;;;;13.70;99.39;101422.09;4992185;28;20092;-67
2021/11/20 10:48:07;;;;;;;5.13;1.88;;;;;;;13.80;98.66;101425.00;4988436;28;20130;-67
2021/11/20 10:50:35;;;;;;;2.58;1.67;;;;;;;13.87;98.66;101425.16;4999225;28;20034;-67
2021/11/20 10:53:33;;;;;;;3.30;2.15;;;;;;;13.74;99.14;101418.34;4978198;28;20117;-67
2021/11/20 10:56:21;;;;;;;3.53;1.52;;;;;;;13.74;98.54;101421.06;4992574;28;20552;-67
2021/11/20 10:58:49;;;;;;;4.25;1.60;;;;;;;13.74;98.99;101415.63;4990212;28;20173;-67
2021/11/20 11:01:43;;;;;;;6.30;2.13;;;;;;;13.75;98.11;101422.59;4990664;28;20029;-67
2021/11/20 11:04:35;;;;;;;2.40;1.52;;;;;;;13.66;98.68;101410.44;4973244;28;20627;-67
2021/11/20 11:07:16;;;;;;;7.43;2.25;;;;;;;13.57;99.28;101405.22;4988200;28;20035;-67
2021/11/20 11:09:55;;;;;;;2.17;1.40;;;;;;;13.56;98.57;101406.38;4973708;28;20088;-67
2021/11/20 11:12:42;;;;;;;4.75;1.70;;;;;;;13.59;98.39;101395.59;4987927;28;20497;-67
2021/11/20 11:15:28;;;;;;;4.03;1.88;;;;;;;13.61;97.93;101389.84;4997252;28;20037;-67
2021/11/20 11:18:29;;;;;;;3.03;1.83;;;;;;;13.69;97.71;101377.22;4999739;28;20051;-67
2021/11/20 11:21:16;;;;;;;1.95;1.70;;;;;;;13.61;97.63;101368.19;4988653;28;20038;-67
2021/11/20 11:24:03;;;;;;;2.70;1.92;;;;;;;13.64;97.79;101359.38;4991527;28;20437;-67
2021/11/20 11:26:33;;;;;;;2.97;1.95;;;;;;;13.73;97.15;101357.22;4977104;28;20401;-67
2021/11/20 11:29:06;;;;;;;5.10;1.90;;;;;;;13.73;97.37;101356.41;4980132;28;20026;-66
2021/11/20 11:31:38;;;;;;;2.95;1.65;;;;;;;13.80;96.61;101351.16;4987158;28;20035;-66
2021/11/20 11:34:22;;;;;;;3.10;1.50;;;;;;;13.70;96.78;101341.69;4991477;28;20030;-67
2021/11/20 11:37:05;;;;;;;2.75;1.63;;;;;;;13.77;96.11;101338.31;4974125;28;20026;-65
2021/11/20 11:39:37;;;;;;;3.35;1.73;;;;;;;13.78;96.11;101340.66;4987114;28;20038;-66
2021/11/20 11:42:25;;;;;;;4.78;1.80;;;;;;;13.74;95.74;101337.13;4990702;28;20113;-66
2021/11/20 11:45:04;;;;;;;3.00;2.00;;;;;;;13.74;95.56;101330.94;4991832;28;20108;-67
2021/11/20 11:47:47;;;;;;;3.20;1.40;;;;;;;13.64;95.98;101326.88;4985773;28;20046;-66
2021/11/20 11:50:38;;;;;;;2.72;1.73;;;;;;;13.63;95.37;101317.19;4991046;28;20038;-66